KSLC/SLC METAR and TAF weather

Enter ICAO airport designator
Station Type Date Time Source
KSLC METAR 2019/08/26 06:54 UTC NOAA

KSLC 260654Z 31008KT 10SM CLR 23/06 A3005 RMK AO2 SLP115 T02280061 403440217


Station Type Date Time Source
KSLC Decoded METAR 2019/08/26 06:54 UTC NOAA

Station name not available
Aug 26, 2019 - 02:54 AM EDT / 2019.08.26 0654 UTC
Wind: from the NW (310 degrees) at 9 MPH (8 KT):0
Visibility: 10 mile(s):0
Sky conditions: clear
Temperature: 73.0 F (22.8 C)
Dew Point: 43.0 F (6.1 C)
Relative Humidity: 33%
Pressure (altimeter): 30.05 in. Hg (1017 hPa)
ob: KSLC 260654Z 31008KT 10SM CLR 23/06 A3005 RMK AO2 SLP115 T02280061 403440217
cycle: 7

Station Type Date Time Source
KSLC TAF 2019/08/26 06:22 UTC NOAA

TAF KSLC 260520Z 2606/2712 33008KT P6SM SKC
FM261000 14005KT P6SM SKC
FM261600 34009KT P6SM SKC
FM270400 14004KT P6SM SKC

Example: see airport list